sensor_id;sensor_type;location;lat;lon;timestamp;P1;durP1;ratioP1;P2;durP2;ratioP2
67442;SDS011;54311;51.726;5.154;2022-08-05T00:00:12;10.43;;;4.20;;
67442;SDS011;54311;51.726;5.154;2022-08-05T00:02:37;8.18;;;4.10;;
67442;SDS011;54311;51.726;5.154;2022-08-05T00:05:03;12.98;;;3.97;;
67442;SDS011;54311;51.726;5.154;2022-08-05T00:07:28;10.27;;;4.60;;
67442;SDS011;54311;51.726;5.154;2022-08-05T00:09:54;11.98;;;4.82;;
67442;SDS011;54311;51.726;5.154;2022-08-05T00:12:19;10.48;;;4.88;;
67442;SDS011;54311;51.726;5.154;2022-08-05T00:14:44;7.10;;;4.15;;
67442;SDS011;54311;51.726;5.154;2022-08-05T00:17:10;10.07;;;4.50;;
67442;SDS011;54311;51.726;5.154;2022-08-05T00:19:35;9.98;;;4.47;;
67442;SDS011;54311;51.726;5.154;2022-08-05T00:22:01;8.20;;;4.55;;
67442;SDS011;54311;51.726;5.154;2022-08-05T00:24:27;9.63;;;4.55;;
67442;SDS011;54311;51.726;5.154;2022-08-05T00:26:52;14.05;;;5.10;;
67442;SDS011;54311;51.726;5.154;2022-08-05T00:29:18;9.48;;;5.13;;
67442;SDS011;54311;51.726;5.154;2022-08-05T00:31:43;14.40;;;4.63;;
67442;SDS011;54311;51.726;5.154;2022-08-05T00:34:09;12.82;;;4.68;;
67442;SDS011;54311;51.726;5.154;2022-08-05T00:36:34;7.00;;;4.68;;
67442;SDS011;54311;51.726;5.154;2022-08-05T00:38:59;9.90;;;4.80;;
67442;SDS011;54311;51.726;5.154;2022-08-05T00:41:31;16.92;;;5.35;;
67442;SDS011;54311;51.726;5.154;2022-08-05T00:43:57;11.20;;;4.47;;
67442;SDS011;54311;51.726;5.154;2022-08-05T00:46:23;8.43;;;4.57;;
67442;SDS011;54311;51.726;5.154;2022-08-05T00:48:49;6.97;;;4.28;;
67442;SDS011;54311;51.726;5.154;2022-08-05T00:51:14;7.35;;;4.30;;
67442;SDS011;54311;51.726;5.154;2022-08-05T00:53:40;7.85;;;4.78;;
67442;SDS011;54311;51.726;5.154;2022-08-05T00:56:05;8.32;;;4.53;;
67442;SDS011;54311;51.726;5.154;2022-08-05T00:58:31;7.90;;;4.30;;
67442;SDS011;54311;51.726;5.154;2022-08-05T01:00:56;8.48;;;4.40;;
67442;SDS011;54311;51.726;5.154;2022-08-05T01:03:21;10.50;;;4.40;;
67442;SDS011;54311;51.726;5.154;2022-08-05T01:05:48;10.05;;;4.15;;
67442;SDS011;54311;51.726;5.154;2022-08-05T01:08:13;4.97;;;3.90;;
67442;SDS011;54311;51.726;5.154;2022-08-05T01:10:40;10.02;;;4.65;;
67442;SDS011;54311;51.726;5.154;2022-08-05T01:13:54;9.57;;;4.72;;
67442;SDS011;54311;51.726;5.154;2022-08-05T01:16:06;10.05;;;4.95;;
67442;SDS011;54311;51.726;5.154;2022-08-05T01:18:37;7.50;;;4.60;;
67442;SDS011;54311;51.726;5.154;2022-08-05T01:21:15;10.05;;;4.55;;
67442;SDS011;54311;51.726;5.154;2022-08-05T01:26:47;13.68;;;4.57;;
67442;SDS011;54311;51.726;5.154;2022-08-05T01:29:16;9.20;;;4.70;;
67442;SDS011;54311;51.726;5.154;2022-08-05T01:31:49;8.77;;;4.78;;
67442;SDS011;54311;51.726;5.154;2022-08-05T01:34:27;6.85;;;4.57;;
67442;SDS011;54311;51.726;5.154;2022-08-05T01:37:05;8.93;;;5.00;;
67442;SDS011;54311;51.726;5.154;2022-08-05T01:39:34;10.20;;;5.35;;
67442;SDS011;54311;51.726;5.154;2022-08-05T01:42:00;9.15;;;5.15;;
67442;SDS011;54311;51.726;5.154;2022-08-05T01:44:27;8.48;;;4.38;;
67442;SDS011;54311;51.726;5.154;2022-08-05T01:46:54;8.85;;;4.53;;
67442;SDS011;54311;51.726;5.154;2022-08-05T01:49:20;12.82;;;5.20;;
67442;SDS011;54311;51.726;5.154;2022-08-05T01:51:46;8.82;;;5.15;;
67442;SDS011;54311;51.726;5.154;2022-08-05T01:54:13;6.30;;;4.15;;
67442;SDS011;54311;51.726;5.154;2022-08-05T01:56:40;7.75;;;4.50;;
67442;SDS011;54311;51.726;5.154;2022-08-05T01:59:07;5.43;;;4.22;;
67442;SDS011;54311;51.726;5.154;2022-08-05T02:01:36;9.50;;;4.90;;
67442;SDS011;54311;51.726;5.154;2022-08-05T02:04:02;8.07;;;4.30;;
67442;SDS011;54311;51.726;5.154;2022-08-05T02:06:27;10.05;;;5.68;;
67442;SDS011;54311;51.726;5.154;2022-08-05T02:08:53;10.63;;;5.50;;
67442;SDS011;54311;51.726;5.154;2022-08-05T02:11:19;10.93;;;4.93;;
67442;SDS011;54311;51.726;5.154;2022-08-05T02:14:06;9.45;;;4.97;;
67442;SDS011;54311;51.726;5.154;2022-08-05T02:16:45;6.80;;;4.53;;
67442;SDS011;54311;51.726;5.154;2022-08-05T02:22:08;11.93;;;4.30;;
67442;SDS011;54311;51.726;5.154;2022-08-05T02:24:40;7.05;;;4.82;;
67442;SDS011;54311;51.726;5.154;2022-08-05T02:27:11;8.57;;;4.53;;
67442;SDS011;54311;51.726;5.154;2022-08-05T02:29:36;8.30;;;4.65;;
67442;SDS011;54311;51.726;5.154;2022-08-05T02:32:05;8.30;;;4.30;;
67442;SDS011;54311;51.726;5.154;2022-08-05T02:34:32;12.77;;;5.03;;
67442;SDS011;54311;51.726;5.154;2022-08-05T02:37:00;10.02;;;4.82;;
67442;SDS011;54311;51.726;5.154;2022-08-05T02:39:28;7.00;;;4.25;;
67442;SDS011;54311;51.726;5.154;2022-08-05T02:41:58;7.30;;;4.43;;
67442;SDS011;54311;51.726;5.154;2022-08-05T02:44:24;13.25;;;5.03;;
67442;SDS011;54311;51.726;5.154;2022-08-05T02:46:49;10.50;;;5.05;;
67442;SDS011;54311;51.726;5.154;2022-08-05T02:49:16;10.00;;;4.97;;
67442;SDS011;54311;51.726;5.154;2022-08-05T02:51:42;11.63;;;5.18;;
67442;SDS011;54311;51.726;5.154;2022-08-05T02:54:08;6.50;;;4.55;;
67442;SDS011;54311;51.726;5.154;2022-08-05T02:56:34;8.27;;;4.78;;
67442;SDS011;54311;51.726;5.154;2022-08-05T02:59:00;8.88;;;5.30;;
67442;SDS011;54311;51.726;5.154;2022-08-05T03:01:25;6.95;;;4.35;;
67442;SDS011;54311;51.726;5.154;2022-08-05T03:03:58;5.75;;;4.57;;
67442;SDS011;54311;51.726;5.154;2022-08-05T03:06:24;9.47;;;4.63;;
67442;SDS011;54311;51.726;5.154;2022-08-05T03:08:51;8.45;;;4.38;;
67442;SDS011;54311;51.726;5.154;2022-08-05T03:11:20;9.77;;;5.10;;
67442;SDS011;54311;51.726;5.154;2022-08-05T03:13:47;8.82;;;4.50;;
67442;SDS011;54311;51.726;5.154;2022-08-05T03:16:13;12.07;;;5.72;;
67442;SDS011;54311;51.726;5.154;2022-08-05T03:18:39;6.78;;;4.70;;
67442;SDS011;54311;51.726;5.154;2022-08-05T03:21:04;7.43;;;4.25;;
67442;SDS011;54311;51.726;5.154;2022-08-05T03:23:30;6.65;;;4.35;;
67442;SDS011;54311;51.726;5.154;2022-08-05T03:25:56;8.20;;;5.15;;
67442;SDS011;54311;51.726;5.154;2022-08-05T03:28:21;7.80;;;4.90;;
67442;SDS011;54311;51.726;5.154;2022-08-05T03:30:47;6.00;;;4.57;;
67442;SDS011;54311;51.726;5.154;2022-08-05T03:33:13;10.82;;;5.13;;
67442;SDS011;54311;51.726;5.154;2022-08-05T03:35:38;9.20;;;5.32;;
67442;SDS011;54311;51.726;5.154;2022-08-05T03:38:04;8.95;;;4.78;;
67442;SDS011;54311;51.726;5.154;2022-08-05T03:40:29;11.02;;;5.07;;
67442;SDS011;54311;51.726;5.154;2022-08-05T03:42:54;13.02;;;5.30;;
67442;SDS011;54311;51.726;5.154;2022-08-05T03:45:20;6.43;;;4.45;;
67442;SDS011;54311;51.726;5.154;2022-08-05T03:47:45;9.35;;;5.53;;
67442;SDS011;54311;51.726;5.154;2022-08-05T03:50:10;8.25;;;5.15;;
67442;SDS011;54311;51.726;5.154;2022-08-05T03:52:41;8.82;;;5.20;;
67442;SDS011;54311;51.726;5.154;2022-08-05T03:55:16;8.40;;;5.28;;
67442;SDS011;54311;51.726;5.154;2022-08-05T03:57:45;7.05;;;4.68;;
67442;SDS011;54311;51.726;5.154;2022-08-05T04:00:13;8.82;;;5.57;;
67442;SDS011;54311;51.726;5.154;2022-08-05T04:02:39;8.77;;;5.28;;
67442;SDS011;54311;51.726;5.154;2022-08-05T04:05:08;8.02;;;5.90;;
67442;SDS011;54311;51.726;5.154;2022-08-05T04:07:34;7.85;;;5.53;;
67442;SDS011;54311;51.726;5.154;2022-08-05T04:10:00;11.85;;;5.68;;
67442;SDS011;54311;51.726;5.154;2022-08-05T04:12:25;15.57;;;6.03;;
67442;SDS011;54311;51.726;5.154;2022-08-05T04:14:50;5.88;;;5.07;;
67442;SDS011;54311;51.726;5.154;2022-08-05T04:17:16;9.57;;;5.40;;
67442;SDS011;54311;51.726;5.154;2022-08-05T04:19:42;11.77;;;6.00;;
67442;SDS011;54311;51.726;5.154;2022-08-05T04:22:09;9.38;;;5.70;;
67442;SDS011;54311;51.726;5.154;2022-08-05T04:24:35;12.15;;;5.78;;
67442;SDS011;54311;51.726;5.154;2022-08-05T04:27:01;7.13;;;5.97;;
67442;SDS011;54311;51.726;5.154;2022-08-05T04:29:26;10.50;;;6.75;;
67442;SDS011;54311;51.726;5.154;2022-08-05T04:31:51;10.13;;;7.00;;
67442;SDS011;54311;51.726;5.154;2022-08-05T04:34:17;11.82;;;7.40;;
67442;SDS011;54311;51.726;5.154;2022-08-05T04:36:42;10.13;;;6.85;;
67442;SDS011;54311;51.726;5.154;2022-08-05T04:39:07;8.80;;;6.45;;
67442;SDS011;54311;51.726;5.154;2022-08-05T04:41:32;10.43;;;6.03;;
67442;SDS011;54311;51.726;5.154;2022-08-05T04:43:58;9.02;;;6.07;;
67442;SDS011;54311;51.726;5.154;2022-08-05T04:46:23;11.98;;;6.45;;
67442;SDS011;54311;51.726;5.154;2022-08-05T04:48:48;11.90;;;6.43;;
67442;SDS011;54311;51.726;5.154;2022-08-05T04:51:14;7.32;;;6.18;;
67442;SDS011;54311;51.726;5.154;2022-08-05T04:53:39;14.85;;;6.53;;
67442;SDS011;54311;51.726;5.154;2022-08-05T04:56:07;14.80;;;7.05;;
67442;SDS011;54311;51.726;5.154;2022-08-05T04:58:33;17.20;;;5.97;;
67442;SDS011;54311;51.726;5.154;2022-08-05T05:00:58;8.32;;;5.88;;
67442;SDS011;54311;51.726;5.154;2022-08-05T05:03:23;9.43;;;5.90;;
67442;SDS011;54311;51.726;5.154;2022-08-05T05:05:49;13.02;;;5.82;;
67442;SDS011;54311;51.726;5.154;2022-08-05T05:08:14;18.55;;;6.35;;
67442;SDS011;54311;51.726;5.154;2022-08-05T05:10:41;10.95;;;6.60;;
67442;SDS011;54311;51.726;5.154;2022-08-05T05:13:11;9.23;;;6.20;;
67442;SDS011;54311;51.726;5.154;2022-08-05T05:15:38;12.93;;;6.45;;
67442;SDS011;54311;51.726;5.154;2022-08-05T05:18:03;7.05;;;5.57;;
67442;SDS011;54311;51.726;5.154;2022-08-05T05:20:29;8.32;;;5.35;;
67442;SDS011;54311;51.726;5.154;2022-08-05T05:22:58;10.60;;;5.80;;
67442;SDS011;54311;51.726;5.154;2022-08-05T05:25:25;6.75;;;5.50;;
67442;SDS011;54311;51.726;5.154;2022-08-05T05:27:51;11.45;;;5.53;;
67442;SDS011;54311;51.726;5.154;2022-08-05T05:30:17;8.82;;;5.35;;
67442;SDS011;54311;51.726;5.154;2022-08-05T05:32:43;11.30;;;5.68;;
67442;SDS011;54311;51.726;5.154;2022-08-05T05:35:08;8.05;;;5.15;;
67442;SDS011;54311;51.726;5.154;2022-08-05T05:37:44;5.82;;;5.32;;
67442;SDS011;54311;51.726;5.154;2022-08-05T05:40:17;9.07;;;5.40;;
67442;SDS011;54311;51.726;5.154;2022-08-05T05:42:44;11.50;;;5.60;;
67442;SDS011;54311;51.726;5.154;2022-08-05T05:45:10;9.52;;;5.82;;
67442;SDS011;54311;51.726;5.154;2022-08-05T05:47:35;10.63;;;5.70;;
67442;SDS011;54311;51.726;5.154;2022-08-05T05:50:01;8.82;;;6.22;;
67442;SDS011;54311;51.726;5.154;2022-08-05T05:52:26;6.15;;;5.53;;
67442;SDS011;54311;51.726;5.154;2022-08-05T05:54:52;18.38;;;6.43;;
67442;SDS011;54311;51.726;5.154;2022-08-05T05:57:17;8.18;;;5.00;;
67442;SDS011;54311;51.726;5.154;2022-08-05T05:59:43;10.63;;;5.13;;
67442;SDS011;54311;51.726;5.154;2022-08-05T06:02:09;6.70;;;4.18;;
67442;SDS011;54311;51.726;5.154;2022-08-05T06:04:34;9.30;;;4.47;;
67442;SDS011;54311;51.726;5.154;2022-08-05T06:06:59;4.93;;;4.10;;
67442;SDS011;54311;51.726;5.154;2022-08-05T06:09:25;4.30;;;3.50;;
67442;SDS011;54311;51.726;5.154;2022-08-05T06:11:50;10.55;;;3.35;;
67442;SDS011;54311;51.726;5.154;2022-08-05T06:14:15;5.57;;;3.53;;
67442;SDS011;54311;51.726;5.154;2022-08-05T06:16:40;5.47;;;3.33;;
67442;SDS011;54311;51.726;5.154;2022-08-05T06:19:06;4.45;;;2.80;;
67442;SDS011;54311;51.726;5.154;2022-08-05T06:21:31;5.57;;;2.58;;
67442;SDS011;54311;51.726;5.154;2022-08-05T06:23:57;2.88;;;2.67;;
67442;SDS011;54311;51.726;5.154;2022-08-05T06:26:23;4.20;;;3.30;;
67442;SDS011;54311;51.726;5.154;2022-08-05T06:28:49;6.15;;;2.92;;
67442;SDS011;54311;51.726;5.154;2022-08-05T06:31:14;6.20;;;3.20;;
67442;SDS011;54311;51.726;5.154;2022-08-05T06:33:39;4.68;;;2.95;;
67442;SDS011;54311;51.726;5.154;2022-08-05T06:36:05;3.95;;;2.35;;
67442;SDS011;54311;51.726;5.154;2022-08-05T06:38:30;4.07;;;2.70;;
67442;SDS011;54311;51.726;5.154;2022-08-05T06:40:56;4.53;;;2.83;;
67442;SDS011;54311;51.726;5.154;2022-08-05T06:43:21;5.13;;;3.10;;
67442;SDS011;54311;51.726;5.154;2022-08-05T06:45:46;3.33;;;3.08;;
67442;SDS011;54311;51.726;5.154;2022-08-05T06:48:11;8.32;;;2.67;;
67442;SDS011;54311;51.726;5.154;2022-08-05T06:50:37;5.30;;;2.90;;
67442;SDS011;54311;51.726;5.154;2022-08-05T06:53:02;5.13;;;2.75;;
67442;SDS011;54311;51.726;5.154;2022-08-05T06:55:27;4.70;;;2.80;;
67442;SDS011;54311;51.726;5.154;2022-08-05T06:57:53;5.53;;;2.85;;
67442;SDS011;54311;51.726;5.154;2022-08-05T07:00:18;4.55;;;2.70;;
67442;SDS011;54311;51.726;5.154;2022-08-05T07:02:45;3.58;;;2.70;;
67442;SDS011;54311;51.726;5.154;2022-08-05T07:05:11;3.78;;;2.60;;
67442;SDS011;54311;51.726;5.154;2022-08-05T07:07:38;7.00;;;2.95;;
67442;SDS011;54311;51.726;5.154;2022-08-05T07:10:04;4.80;;;2.60;;
67442;SDS011;54311;51.726;5.154;2022-08-05T07:12:30;5.22;;;3.22;;
67442;SDS011;54311;51.726;5.154;2022-08-05T07:15:14;3.13;;;2.80;;
67442;SDS011;54311;51.726;5.154;2022-08-05T07:17:58;4.53;;;3.08;;
67442;SDS011;54311;51.726;5.154;2022-08-05T07:20:23;6.75;;;2.47;;
67442;SDS011;54311;51.726;5.154;2022-08-05T07:22:49;3.53;;;2.67;;
67442;SDS011;54311;51.726;5.154;2022-08-05T07:25:14;7.15;;;3.50;;
67442;SDS011;54311;51.726;5.154;2022-08-05T07:27:39;7.35;;;3.75;;
67442;SDS011;54311;51.726;5.154;2022-08-05T07:30:05;4.10;;;2.45;;
67442;SDS011;54311;51.726;5.154;2022-08-05T07:32:34;6.53;;;2.80;;
67442;SDS011;54311;51.726;5.154;2022-08-05T07:35:00;5.75;;;2.88;;
67442;SDS011;54311;51.726;5.154;2022-08-05T07:37:26;5.30;;;3.08;;
67442;SDS011;54311;51.726;5.154;2022-08-05T07:39:51;7.97;;;3.22;;
67442;SDS011;54311;51.726;5.154;2022-08-05T07:42:16;4.35;;;2.80;;
67442;SDS011;54311;51.726;5.154;2022-08-05T07:44:41;3.92;;;2.50;;
67442;SDS011;54311;51.726;5.154;2022-08-05T07:47:07;7.07;;;2.47;;
67442;SDS011;54311;51.726;5.154;2022-08-05T07:49:32;7.07;;;2.25;;
67442;SDS011;54311;51.726;5.154;2022-08-05T07:51:58;3.45;;;2.42;;
67442;SDS011;54311;51.726;5.154;2022-08-05T07:54:23;4.68;;;2.70;;
67442;SDS011;54311;51.726;5.154;2022-08-05T07:56:50;2.28;;;2.08;;
67442;SDS011;54311;51.726;5.154;2022-08-05T07:59:15;8.45;;;2.35;;
67442;SDS011;54311;51.726;5.154;2022-08-05T08:01:41;5.75;;;1.90;;
67442;SDS011;54311;51.726;5.154;2022-08-05T08:04:06;3.25;;;2.15;;
67442;SDS011;54311;51.726;5.154;2022-08-05T08:06:31;1.90;;;1.75;;
67442;SDS011;54311;51.726;5.154;2022-08-05T08:08:57;4.97;;;1.73;;
67442;SDS011;54311;51.726;5.154;2022-08-05T08:11:22;8.05;;;3.03;;
67442;SDS011;54311;51.726;5.154;2022-08-05T08:13:48;5.35;;;2.03;;
67442;SDS011;54311;51.726;5.154;2022-08-05T08:16:13;5.32;;;1.73;;
67442;SDS011;54311;51.726;5.154;2022-08-05T08:18:38;3.45;;;1.52;;
67442;SDS011;54311;51.726;5.154;2022-08-05T08:21:04;1.90;;;1.50;;
67442;SDS011;54311;51.726;5.154;2022-08-05T08:23:30;5.20;;;1.60;;
67442;SDS011;54311;51.726;5.154;2022-08-05T08:25:55;1.67;;;1.23;;
67442;SDS011;54311;51.726;5.154;2022-08-05T08:28:21;2.70;;;1.40;;
67442;SDS011;54311;51.726;5.154;2022-08-05T08:30:46;1.55;;;1.35;;
67442;SDS011;54311;51.726;5.154;2022-08-05T08:33:11;2.53;;;1.42;;
67442;SDS011;54311;51.726;5.154;2022-08-05T08:35:37;3.45;;;1.40;;
67442;SDS011;54311;51.726;5.154;2022-08-05T08:38:02;2.28;;;1.48;;
67442;SDS011;54311;51.726;5.154;2022-08-05T08:40:30;2.97;;;1.40;;
67442;SDS011;54311;51.726;5.154;2022-08-05T08:42:57;2.00;;;1.38;;
67442;SDS011;54311;51.726;5.154;2022-08-05T08:45:22;4.70;;;1.40;;
67442;SDS011;54311;51.726;5.154;2022-08-05T08:47:49;2.70;;;1.40;;
67442;SDS011;54311;51.726;5.154;2022-08-05T08:50:15;1.20;;;1.10;;
67442;SDS011;54311;51.726;5.154;2022-08-05T08:52:41;1.23;;;1.13;;
67442;SDS011;54311;51.726;5.154;2022-08-05T08:55:16;1.45;;;1.20;;
67442;SDS011;54311;51.726;5.154;2022-08-05T08:57:43;4.60;;;1.00;;
67442;SDS011;54311;51.726;5.154;2022-08-05T09:00:10;3.28;;;1.20;;
67442;SDS011;54311;51.726;5.154;2022-08-05T09:02:35;2.55;;;1.25;;
67442;SDS011;54311;51.726;5.154;2022-08-05T09:05:01;2.45;;;1.52;;
67442;SDS011;54311;51.726;5.154;2022-08-05T09:07:27;4.25;;;1.40;;
67442;SDS011;54311;51.726;5.154;2022-08-05T09:09:53;1.77;;;1.00;;
67442;SDS011;54311;51.726;5.154;2022-08-05T09:12:18;2.42;;;1.20;;
67442;SDS011;54311;51.726;5.154;2022-08-05T09:14:43;3.03;;;1.20;;
67442;SDS011;54311;51.726;5.154;2022-08-05T09:17:09;2.53;;;1.30;;
67442;SDS011;54311;51.726;5.154;2022-08-05T09:19:36;3.45;;;1.50;;
67442;SDS011;54311;51.726;5.154;2022-08-05T09:22:02;1.30;;;1.15;;
67442;SDS011;54311;51.726;5.154;2022-08-05T09:24:27;0.90;;;0.90;;
67442;SDS011;54311;51.726;5.154;2022-08-05T09:26:57;0.90;;;0.90;;
67442;SDS011;54311;51.726;5.154;2022-08-05T09:29:38;1.92;;;1.00;;
67442;SDS011;54311;51.726;5.154;2022-08-05T09:32:11;2.65;;;0.88;;
67442;SDS011;54311;51.726;5.154;2022-08-05T09:37:21;1.17;;;0.90;;
67442;SDS011;54311;51.726;5.154;2022-08-05T09:39:48;1.42;;;0.77;;
67442;SDS011;54311;51.726;5.154;2022-08-05T09:42:18;2.22;;;1.10;;
67442;SDS011;54311;51.726;5.154;2022-08-05T09:44:45;1.42;;;0.80;;
67442;SDS011;54311;51.726;5.154;2022-08-05T09:47:13;1.35;;;0.90;;
67442;SDS011;54311;51.726;5.154;2022-08-05T09:49:39;6.35;;;0.90;;
67442;SDS011;54311;51.726;5.154;2022-08-05T09:55:03;1.27;;;0.90;;
67442;SDS011;54311;51.726;5.154;2022-08-05T09:57:40;1.45;;;1.10;;
67442;SDS011;54311;51.726;5.154;2022-08-05T10:00:08;3.00;;;0.90;;
67442;SDS011;54311;51.726;5.154;2022-08-05T10:02:44;1.60;;;1.10;;
67442;SDS011;54311;51.726;5.154;2022-08-05T10:05:17;2.33;;;1.25;;
67442;SDS011;54311;51.726;5.154;2022-08-05T10:10:26;1.58;;;1.00;;
67442;SDS011;54311;51.726;5.154;2022-08-05T10:12:57;3.30;;;1.50;;
67442;SDS011;54311;51.726;5.154;2022-08-05T10:15:24;5.88;;;1.10;;
67442;SDS011;54311;51.726;5.154;2022-08-05T10:20:35;3.75;;;1.00;;
67442;SDS011;54311;51.726;5.154;2022-08-05T10:23:05;2.28;;;0.95;;
67442;SDS011;54311;51.726;5.154;2022-08-05T10:25:31;3.25;;;0.90;;
67442;SDS011;54311;51.726;5.154;2022-08-05T10:27:57;1.45;;;1.35;;
67442;SDS011;54311;51.726;5.154;2022-08-05T10:30:23;1.60;;;1.15;;
67442;SDS011;54311;51.726;5.154;2022-08-05T10:32:48;1.55;;;1.23;;
67442;SDS011;54311;51.726;5.154;2022-08-05T10:35:14;3.33;;;1.23;;
67442;SDS011;54311;51.726;5.154;2022-08-05T10:37:40;4.55;;;1.42;;
67442;SDS011;54311;51.726;5.154;2022-08-05T10:40:07;2.42;;;1.23;;
67442;SDS011;54311;51.726;5.154;2022-08-05T10:42:38;2.50;;;1.40;;
67442;SDS011;54311;51.726;5.154;2022-08-05T10:45:07;7.00;;;1.25;;
67442;SDS011;54311;51.726;5.154;2022-08-05T10:47:33;2.55;;;1.33;;
67442;SDS011;54311;51.726;5.154;2022-08-05T10:50:07;2.17;;;1.17;;
67442;SDS011;54311;51.726;5.154;2022-08-05T10:52:42;3.53;;;1.33;;
67442;SDS011;54311;51.726;5.154;2022-08-05T10:55:11;4.35;;;1.40;;
67442;SDS011;54311;51.726;5.154;2022-08-05T10:57:38;2.63;;;1.20;;
67442;SDS011;54311;51.726;5.154;2022-08-05T11:05:36;11.95;;;1.10;;
67442;SDS011;54311;51.726;5.154;2022-08-05T11:08:03;1.55;;;0.98;;
67442;SDS011;54311;51.726;5.154;2022-08-05T11:10:30;3.60;;;1.23;;
67442;SDS011;54311;51.726;5.154;2022-08-05T11:12:56;3.17;;;1.10;;
67442;SDS011;54311;51.726;5.154;2022-08-05T11:15:24;7.85;;;1.25;;
67442;SDS011;54311;51.726;5.154;2022-08-05T11:20:48;2.58;;;1.02;;
67442;SDS011;54311;51.726;5.154;2022-08-05T11:26:14;1.25;;;1.15;;
67442;SDS011;54311;51.726;5.154;2022-08-05T11:28:46;2.70;;;0.98;;
67442;SDS011;54311;51.726;5.154;2022-08-05T11:36:06;2.17;;;0.88;;
67442;SDS011;54311;51.726;5.154;2022-08-05T11:43:58;3.13;;;1.10;;
67442;SDS011;54311;51.726;5.154;2022-08-05T11:46:25;1.25;;;0.90;;
67442;SDS011;54311;51.726;5.154;2022-08-05T11:49:01;4.60;;;1.10;;
67442;SDS011;54311;51.726;5.154;2022-08-05T11:51:28;4.68;;;0.98;;
67442;SDS011;54311;51.726;5.154;2022-08-05T11:53:54;1.60;;;0.90;;
67442;SDS011;54311;51.726;5.154;2022-08-05T11:56:20;6.07;;;1.23;;
67442;SDS011;54311;51.726;5.154;2022-08-05T11:58:46;2.63;;;1.00;;
67442;SDS011;54311;51.726;5.154;2022-08-05T12:03:42;4.00;;;0.95;;
67442;SDS011;54311;51.726;5.154;2022-08-05T12:06:08;2.22;;;0.90;;
67442;SDS011;54311;51.726;5.154;2022-08-05T12:08:38;1.45;;;0.90;;
67442;SDS011;54311;51.726;5.154;2022-08-05T12:11:04;2.03;;;1.75;;
67442;SDS011;54311;51.726;5.154;2022-08-05T12:13:32;1.63;;;1.10;;
67442;SDS011;54311;51.726;5.154;2022-08-05T12:15:58;3.35;;;0.80;;
67442;SDS011;54311;51.726;5.154;2022-08-05T12:18:27;1.38;;;0.82;;
67442;SDS011;54311;51.726;5.154;2022-08-05T12:20:55;1.50;;;0.93;;
67442;SDS011;54311;51.726;5.154;2022-08-05T12:23:21;1.88;;;1.00;;
67442;SDS011;54311;51.726;5.154;2022-08-05T12:25:47;2.40;;;1.10;;
67442;SDS011;54311;51.726;5.154;2022-08-05T12:30:57;5.38;;;0.80;;
67442;SDS011;54311;51.726;5.154;2022-08-05T12:33:23;1.13;;;0.73;;
67442;SDS011;54311;51.726;5.154;2022-08-05T12:35:49;1.92;;;0.88;;
67442;SDS011;54311;51.726;5.154;2022-08-05T12:38:14;2.72;;;0.90;;
67442;SDS011;54311;51.726;5.154;2022-08-05T12:40:40;1.55;;;0.70;;
67442;SDS011;54311;51.726;5.154;2022-08-05T12:43:05;1.17;;;0.80;;
67442;SDS011;54311;51.726;5.154;2022-08-05T12:45:31;2.88;;;0.90;;
67442;SDS011;54311;51.726;5.154;2022-08-05T12:47:58;2.30;;;0.80;;
67442;SDS011;54311;51.726;5.154;2022-08-05T12:50:24;1.05;;;0.88;;
67442;SDS011;54311;51.726;5.154;2022-08-05T12:52:56;4.38;;;0.80;;
67442;SDS011;54311;51.726;5.154;2022-08-05T12:55:27;6.43;;;0.70;;
67442;SDS011;54311;51.726;5.154;2022-08-05T12:57:53;3.63;;;0.90;;
67442;SDS011;54311;51.726;5.154;2022-08-05T13:00:20;4.95;;;0.80;;
67442;SDS011;54311;51.726;5.154;2022-08-05T13:02:48;2.38;;;0.80;;
67442;SDS011;54311;51.726;5.154;2022-08-05T13:05:14;5.82;;;1.10;;
67442;SDS011;54311;51.726;5.154;2022-08-05T13:07:39;1.27;;;0.80;;
67442;SDS011;54311;51.726;5.154;2022-08-05T13:10:13;0.95;;;0.88;;
67442;SDS011;54311;51.726;5.154;2022-08-05T13:12:42;4.70;;;0.80;;
67442;SDS011;54311;51.726;5.154;2022-08-05T13:15:10;3.55;;;0.90;;
67442;SDS011;54311;51.726;5.154;2022-08-05T13:17:36;1.63;;;0.70;;
67442;SDS011;54311;51.726;5.154;2022-08-05T13:20:09;1.67;;;0.90;;
67442;SDS011;54311;51.726;5.154;2022-08-05T13:22:36;13.25;;;1.05;;
67442;SDS011;54311;51.726;5.154;2022-08-05T13:25:11;1.80;;;0.80;;
67442;SDS011;54311;51.726;5.154;2022-08-05T13:27:42;4.30;;;0.93;;
67442;SDS011;54311;51.726;5.154;2022-08-05T13:30:12;2.90;;;1.05;;
67442;SDS011;54311;51.726;5.154;2022-08-05T13:32:38;6.65;;;1.00;;
67442;SDS011;54311;51.726;5.154;2022-08-05T13:35:04;1.42;;;1.08;;
67442;SDS011;54311;51.726;5.154;2022-08-05T13:37:30;2.80;;;0.90;;
67442;SDS011;54311;51.726;5.154;2022-08-05T13:39:56;1.52;;;0.90;;
67442;SDS011;54311;51.726;5.154;2022-08-05T13:42:22;2.78;;;0.93;;
67442;SDS011;54311;51.726;5.154;2022-08-05T13:44:54;5.05;;;1.42;;
67442;SDS011;54311;51.726;5.154;2022-08-05T13:47:21;1.45;;;0.80;;
67442;SDS011;54311;51.726;5.154;2022-08-05T13:49:47;3.95;;;1.00;;
67442;SDS011;54311;51.726;5.154;2022-08-05T13:52:14;1.98;;;0.80;;
67442;SDS011;54311;51.726;5.154;2022-08-05T13:54:46;1.55;;;0.93;;
67442;SDS011;54311;51.726;5.154;2022-08-05T13:57:12;1.65;;;0.90;;
67442;SDS011;54311;51.726;5.154;2022-08-05T13:59:38;7.05;;;1.52;;
67442;SDS011;54311;51.726;5.154;2022-08-05T14:02:06;7.30;;;1.05;;
67442;SDS011;54311;51.726;5.154;2022-08-05T14:04:34;1.33;;;0.73;;
67442;SDS011;54311;51.726;5.154;2022-08-05T14:07:21;3.50;;;0.88;;
67442;SDS011;54311;51.726;5.154;2022-08-05T14:09:47;3.08;;;1.00;;
67442;SDS011;54311;51.726;5.154;2022-08-05T14:12:13;3.17;;;1.08;;
67442;SDS011;54311;51.726;5.154;2022-08-05T14:14:38;1.05;;;0.95;;
67442;SDS011;54311;51.726;5.154;2022-08-05T14:17:04;1.60;;;0.93;;
67442;SDS011;54311;51.726;5.154;2022-08-05T14:19:29;0.80;;;0.70;;
67442;SDS011;54311;51.726;5.154;2022-08-05T14:21:56;3.22;;;1.10;;
67442;SDS011;54311;51.726;5.154;2022-08-05T14:24:21;6.03;;;0.95;;
67442;SDS011;54311;51.726;5.154;2022-08-05T14:26:46;1.88;;;0.85;;
67442;SDS011;54311;51.726;5.154;2022-08-05T14:29:12;1.38;;;0.90;;
67442;SDS011;54311;51.726;5.154;2022-08-05T14:31:37;1.95;;;0.70;;
67442;SDS011;54311;51.726;5.154;2022-08-05T14:34:03;10.02;;;1.00;;
67442;SDS011;54311;51.726;5.154;2022-08-05T14:36:28;4.95;;;0.93;;
67442;SDS011;54311;51.726;5.154;2022-08-05T14:38:53;3.25;;;1.20;;
67442;SDS011;54311;51.726;5.154;2022-08-05T14:41:19;1.17;;;0.90;;
67442;SDS011;54311;51.726;5.154;2022-08-05T14:43:44;3.00;;;1.00;;
67442;SDS011;54311;51.726;5.154;2022-08-05T14:46:10;4.13;;;0.90;;
67442;SDS011;54311;51.726;5.154;2022-08-05T14:48:35;3.53;;;0.85;;
67442;SDS011;54311;51.726;5.154;2022-08-05T14:51:00;3.42;;;1.35;;
67442;SDS011;54311;51.726;5.154;2022-08-05T14:53:26;4.95;;;0.98;;
67442;SDS011;54311;51.726;5.154;2022-08-05T14:55:51;2.03;;;0.98;;
67442;SDS011;54311;51.726;5.154;2022-08-05T14:58:16;1.85;;;1.02;;
67442;SDS011;54311;51.726;5.154;2022-08-05T15:00:42;1.23;;;0.95;;
67442;SDS011;54311;51.726;5.154;2022-08-05T15:03:07;3.58;;;0.88;;
67442;SDS011;54311;51.726;5.154;2022-08-05T15:05:33;2.38;;;1.08;;
67442;SDS011;54311;51.726;5.154;2022-08-05T15:07:59;3.80;;;1.10;;
67442;SDS011;54311;51.726;5.154;2022-08-05T15:10:25;3.75;;;0.88;;
67442;SDS011;54311;51.726;5.154;2022-08-05T15:12:50;2.17;;;1.00;;
67442;SDS011;54311;51.726;5.154;2022-08-05T15:15:16;2.22;;;0.90;;
67442;SDS011;54311;51.726;5.154;2022-08-05T15:17:41;1.08;;;0.80;;
67442;SDS011;54311;51.726;5.154;2022-08-05T15:20:07;3.15;;;0.77;;
67442;SDS011;54311;51.726;5.154;2022-08-05T15:22:34;4.05;;;1.30;;
67442;SDS011;54311;51.726;5.154;2022-08-05T15:24:59;2.40;;;0.77;;
67442;SDS011;54311;51.726;5.154;2022-08-05T15:27:25;1.00;;;0.88;;